Capo Bellavista, Italia

10:26 AM CET del 19 Dicembre 2014 (GMT +0100)
Elmas Mil | Change Station
CLOSE
Current Station
Aeroporto
Location: Cagliari,
Altitudine: 13 ft
Stazioni meteo nelle vicinanze

Alt. 13 ft 39.24 °N, 9.06 °E | Updated 6 minutes ago

Clear
Sereno
52 °F
Sembra 52 °F
N
6
Vento Variabile Vento da Nord

Oggi
Massima -- | Minima -- °F
--% Possibilità di precip.
Ieri
Massima -- | Minima -- °F
Precip. -- in
7:37 AM 4:58 PM
Luna calante, 9% visible
Pressione 30.33 in
Visibilità -9999.0 miglia
Nuvole
Punto di rugiada 52 °F
Umidità 100%
Piovosità 0.00 in
Spessore del manto nevoso Non disponibile.
Raggi UV Non disponibile.
Polline Non disponibile.
Qualità dell'aria Non disponibile.
Flu Activity Non disponibile.
METAR LIEE 190920Z 35005KT CAVOK 11/11 Q1027

More Conditions Fewer Conditions

Pressione 30.33 in
Visibilità -9999.0 miglia
Nuvole
Punto di rugiada 52 °F
Umidità 100%
Piovosità 0.00 in
Spessore del manto nevoso Non disponibile.
Raggi UV Non disponibile.
Polline Non disponibile.
Qualità dell'aria Non disponibile.
Flu Activity Non disponibile.
METAR LIEE 190920Z 35005KT CAVOK 11/11 Q1027

More Conditions Fewer Conditions

10-Day Weather Forecast

Almanac

Astronomia

Dec. 19, 2014 Alba Tramonto
Ora attuale
Crepuscolo civile
Crepuscolo nautico
Crepuscolo astronomico
Luna
Estensione della luce visibile
Lunghezza del giorno
Tomorrow will be .
, % of the Moon is Illuminated

Gli estremi di oggi

Massime Regione Minime Regione

Community

WunderPhotos

Upload Photos

1,778,966 foto caricate!

WunderBlogs® & News

Nearby

Qualità dell'aria

  Qualità dell'aria Indice AQ Inquinante
Not available.

Profondità neve

Stazione Profondità Altitudine

Attività sismica

Città  Distanza Mag. Data & Ora
Minimo Magnitudo Mostrato è 2.5.

Temperature delle acque costiere

Località Temperatura

Stazioni meteo nelle vicinanze